createdAt,value
2018-10-02T00:01:37.931Z,9.31
2018-10-02T00:03:50.129Z,9.28
2018-10-02T00:06:02.351Z,9.25
2018-10-02T00:08:14.570Z,9.27
2018-10-02T00:10:26.928Z,9.24
2018-10-02T00:12:44.811Z,9.25
2018-10-02T00:14:57.063Z,9.21
2018-10-02T00:17:09.275Z,9.20
2018-10-02T00:19:21.478Z,9.22
2018-10-02T00:21:33.671Z,9.22
2018-10-02T00:23:45.927Z,9.19
2018-10-02T00:25:58.154Z,9.18
2018-10-02T00:28:10.344Z,9.20
2018-10-02T00:30:22.607Z,9.22
2018-10-02T00:32:34.759Z,9.22
2018-10-02T00:34:47.026Z,9.22
2018-10-02T00:36:59.250Z,9.26
2018-10-02T00:39:11.490Z,9.27
2018-10-02T00:41:23.702Z,9.23
2018-10-02T00:43:35.934Z,9.15
2018-10-02T00:45:48.215Z,9.15
2018-10-02T00:48:00.456Z,9.20
2018-10-02T00:50:12.609Z,9.22
2018-10-02T00:52:24.819Z,9.29
2018-10-02T00:54:37.076Z,9.15
2018-10-02T00:56:49.262Z,9.10
2018-10-02T00:59:01.514Z,9.15
2018-10-02T01:01:13.671Z,9.15
2018-10-02T01:03:25.863Z,9.20
2018-10-02T01:05:38.051Z,9.17
2018-10-02T01:07:50.280Z,9.09
2018-10-02T01:10:02.478Z,9.09
2018-10-02T01:12:14.707Z,9.10
2018-10-02T01:14:26.911Z,9.10
2018-10-02T01:16:39.154Z,9.11
2018-10-02T01:18:51.387Z,9.11
2018-10-02T01:21:03.643Z,9.10
2018-10-02T01:23:15.820Z,9.08
2018-10-02T01:25:28.110Z,9.06
2018-10-02T01:27:40.305Z,9.06
2018-10-02T01:29:52.519Z,9.10
2018-10-02T01:32:04.725Z,9.08
2018-10-02T01:34:16.971Z,9.03
2018-10-02T01:36:29.183Z,8.99
2018-10-02T01:38:41.371Z,8.98
2018-10-02T01:40:53.705Z,8.95
2018-10-02T01:43:05.930Z,8.97
2018-10-02T01:45:18.157Z,8.95
2018-10-02T01:47:30.356Z,8.98
2018-10-02T01:49:42.557Z,8.96
2018-10-02T01:51:54.786Z,8.99
2018-10-02T01:54:07.006Z,8.98
2018-10-02T01:56:19.238Z,8.97
2018-10-02T01:58:31.471Z,8.98
2018-10-02T02:00:43.696Z,8.99
2018-10-02T02:02:55.894Z,8.97
2018-10-02T02:05:08.376Z,9.00
2018-10-02T02:07:20.605Z,9.01
2018-10-02T02:09:32.827Z,8.97
2018-10-02T02:11:45.067Z,8.91
2018-10-02T02:13:57.250Z,8.89
2018-10-02T02:16:09.424Z,8.82
2018-10-02T02:18:21.612Z,8.78
2018-10-02T02:20:33.883Z,8.74
2018-10-02T02:22:46.101Z,8.70
2018-10-02T02:24:58.303Z,8.62
2018-10-02T02:27:10.518Z,8.57
2018-10-02T02:29:22.739Z,8.58
2018-10-02T02:31:34.963Z,8.56
2018-10-02T02:33:47.137Z,8.46
2018-10-02T02:35:59.384Z,8.37
2018-10-02T02:38:11.590Z,8.34
2018-10-02T02:40:23.819Z,8.30
2018-10-02T02:42:36.037Z,8.29
2018-10-02T02:44:48.221Z,8.23
2018-10-02T02:47:06.082Z,8.16
2018-10-02T02:49:24.023Z,8.13
2018-10-02T02:51:36.359Z,8.08
2018-10-02T02:53:48.539Z,8.05
2018-10-02T02:56:00.786Z,8.01
2018-10-02T02:58:13.012Z,7.94
2018-10-02T03:00:25.258Z,7.86
2018-10-02T03:02:37.504Z,7.86
2018-10-02T03:04:49.735Z,7.82
2018-10-02T03:07:02.002Z,7.80
2018-10-02T03:09:14.247Z,7.76
2018-10-02T03:11:26.466Z,7.76
2018-10-02T03:13:38.683Z,7.75
2018-10-02T03:15:50.884Z,7.71
2018-10-02T03:18:03.130Z,7.68
2018-10-02T03:20:15.341Z,7.64
2018-10-02T03:22:27.556Z,7.57
2018-10-02T03:24:39.738Z,7.52
2018-10-02T03:26:51.963Z,7.48
2018-10-02T03:29:04.162Z,7.48
2018-10-02T03:31:16.375Z,7.47
2018-10-02T03:33:28.560Z,7.44
2018-10-02T03:35:40.786Z,7.41
2018-10-02T03:37:53.048Z,7.42
2018-10-02T03:40:05.596Z,7.41
2018-10-02T03:42:17.851Z,7.40
2018-10-02T03:44:30.060Z,7.37
2018-10-02T03:46:42.280Z,7.32
2018-10-02T03:48:54.602Z,7.27
2018-10-02T03:51:06.733Z,7.25
2018-10-02T03:53:18.955Z,7.23
2018-10-02T03:55:31.146Z,7.22
2018-10-02T03:57:43.365Z,7.17
2018-10-02T03:59:55.633Z,7.11
2018-10-02T04:02:07.844Z,7.07
2018-10-02T04:04:20.110Z,7.01
2018-10-02T04:06:32.299Z,6.93
2018-10-02T04:08:44.604Z,6.82
2018-10-02T04:10:56.843Z,6.74
2018-10-02T04:13:09.086Z,6.67
2018-10-02T04:15:21.310Z,6.59
2018-10-02T04:17:33.515Z,6.48
2018-10-02T04:19:45.730Z,6.40
2018-10-02T04:21:58.030Z,6.31
2018-10-02T04:24:10.222Z,6.48
2018-10-02T04:26:22.437Z,6.82
2018-10-02T04:28:34.638Z,6.80
2018-10-02T04:30:47.027Z,6.64
2018-10-02T04:32:59.260Z,6.48
2018-10-02T04:35:11.465Z,6.30
2018-10-02T04:37:23.679Z,6.20
2018-10-02T04:39:35.895Z,6.08
2018-10-02T04:41:48.139Z,5.96
2018-10-02T04:44:00.344Z,5.86
2018-10-02T04:46:12.611Z,5.78
2018-10-02T04:48:25.006Z,5.71
2018-10-02T04:50:37.220Z,5.62
2018-10-02T04:52:49.413Z,5.57
2018-10-02T04:55:01.741Z,5.57
2018-10-02T04:57:13.882Z,5.58
2018-10-02T04:59:26.110Z,5.57
2018-10-02T05:01:38.328Z,5.56
2018-10-02T05:03:50.578Z,5.52
2018-10-02T05:06:02.935Z,5.50
2018-10-02T05:08:15.232Z,5.48
2018-10-02T05:10:27.423Z,5.49
2018-10-02T05:12:39.616Z,5.53
2018-10-02T05:14:51.835Z,5.59
2018-10-02T05:17:04.064Z,5.68
2018-10-02T05:19:16.301Z,5.75
2018-10-02T05:21:28.519Z,5.82
2018-10-02T05:23:40.759Z,5.81
2018-10-02T05:25:53.067Z,5.86
2018-10-02T05:28:05.387Z,5.94
2018-10-02T05:30:17.635Z,6.02
2018-10-02T05:32:29.835Z,6.06
2018-10-02T05:34:42.203Z,6.05
2018-10-02T05:36:54.477Z,6.03
2018-10-02T05:39:07.573Z,6.04
2018-10-02T05:41:19.866Z,6.02
2018-10-02T05:43:32.080Z,6.06
2018-10-02T05:45:44.298Z,6.09
2018-10-02T05:47:56.556Z,6.12
2018-10-02T05:50:08.796Z,6.18
2018-10-02T05:52:21.055Z,6.18
2018-10-02T05:54:33.255Z,6.24
2018-10-02T05:56:45.536Z,6.28
2018-10-02T05:58:57.760Z,6.35
2018-10-02T06:01:09.964Z,6.37
2018-10-02T06:03:22.153Z,6.39
2018-10-02T06:05:34.346Z,6.44
2018-10-02T06:07:46.559Z,6.50
2018-10-02T06:09:58.808Z,6.59
2018-10-02T06:12:11.023Z,6.69
2018-10-02T06:14:23.262Z,6.79
2018-10-02T06:16:35.503Z,6.84
2018-10-02T06:18:47.823Z,6.85
2018-10-02T06:21:00.045Z,6.93
2018-10-02T06:23:12.260Z,7.03
2018-10-02T06:25:24.506Z,7.21
2018-10-02T06:27:36.735Z,7.37
2018-10-02T06:29:48.936Z,7.58
2018-10-02T06:32:01.172Z,7.76
2018-10-02T06:34:13.399Z,7.92
2018-10-02T06:36:25.664Z,8.05
2018-10-02T06:38:38.029Z,8.06
2018-10-02T06:40:50.147Z,8.09
2018-10-02T06:43:02.375Z,8.11
2018-10-02T06:45:14.578Z,8.06
2018-10-02T06:47:26.866Z,8.05
2018-10-02T06:49:39.085Z,8.02
2018-10-02T06:51:51.464Z,8.01
2018-10-02T06:54:03.655Z,8.01
2018-10-02T06:56:15.841Z,8.02
2018-10-02T06:58:28.092Z,8.15
2018-10-02T07:00:40.355Z,8.54
2018-10-02T07:02:52.548Z,8.87
2018-10-02T07:05:04.809Z,8.95
2018-10-02T07:07:17.008Z,9.05
2018-10-02T07:09:29.202Z,9.30
2018-10-02T07:11:41.383Z,9.80
2018-10-02T07:13:53.642Z,10.30
2018-10-02T07:16:05.915Z,10.69
2018-10-02T07:18:18.165Z,10.76
2018-10-02T07:20:30.511Z,10.61
2018-10-02T07:22:42.702Z,10.51
2018-10-02T07:24:54.920Z,10.34
2018-10-02T07:27:07.309Z,10.30
2018-10-02T07:29:19.430Z,10.28
2018-10-02T07:31:31.716Z,10.29
2018-10-02T07:33:44.337Z,10.19
2018-10-02T07:35:56.559Z,10.22
2018-10-02T07:38:08.792Z,10.22
2018-10-02T07:40:21.044Z,10.19
2018-10-02T07:42:33.303Z,10.27
2018-10-02T07:44:45.512Z,10.53
2018-10-02T07:46:57.738Z,10.61
2018-10-02T07:49:09.967Z,10.72
2018-10-02T07:51:22.166Z,10.86
2018-10-02T07:53:34.406Z,10.90
2018-10-02T07:55:46.582Z,10.89
2018-10-02T07:57:58.776Z,10.88
2018-10-02T08:00:11.143Z,10.79
2018-10-02T08:02:23.322Z,10.64
2018-10-02T08:04:35.489Z,10.61
2018-10-02T08:06:47.720Z,10.71
2018-10-02T08:09:00.000Z,10.90
2018-10-02T08:11:12.171Z,10.97
2018-10-02T08:13:24.380Z,11.00
2018-10-02T08:15:36.901Z,10.94
2018-10-02T08:17:49.175Z,11.10
2018-10-02T08:20:01.394Z,11.36
2018-10-02T08:22:13.591Z,11.66
2018-10-02T08:24:25.804Z,11.90
2018-10-02T08:26:38.146Z,12.21
2018-10-02T08:28:50.331Z,12.47
2018-10-02T08:31:02.527Z,12.78
2018-10-02T08:33:14.780Z,13.11
2018-10-02T08:35:27.036Z,13.36
2018-10-02T08:37:39.233Z,13.55
2018-10-02T08:39:51.460Z,13.49
2018-10-02T08:42:03.754Z,13.33
2018-10-02T08:44:16.039Z,13.45
2018-10-02T08:46:28.290Z,13.73
2018-10-02T08:48:40.510Z,13.65
2018-10-02T08:50:52.818Z,13.52
2018-10-02T08:53:05.096Z,13.17
2018-10-02T08:55:17.293Z,12.90
2018-10-02T08:57:29.495Z,12.83
2018-10-02T08:59:41.688Z,12.72
2018-10-02T09:01:53.928Z,12.50
2018-10-02T09:04:06.251Z,12.35
2018-10-02T09:06:18.539Z,12.22
2018-10-02T09:08:30.761Z,12.19
2018-10-02T09:10:43.087Z,12.02
2018-10-02T09:12:55.294Z,11.91
2018-10-02T09:15:12.156Z,11.82
2018-10-02T09:17:19.839Z,11.77
2018-10-02T09:19:32.062Z,11.70
2018-10-02T09:21:44.305Z,11.75
2018-10-02T09:23:56.551Z,11.70
2018-10-02T09:26:08.727Z,11.81
2018-10-02T09:28:20.927Z,11.90
2018-10-02T09:30:38.826Z,11.98
2018-10-02T09:32:56.807Z,11.94
2018-10-02T09:35:14.729Z,11.94
2018-10-02T09:37:32.818Z,11.99
2018-10-02T09:39:50.748Z,12.06
2018-10-02T09:42:08.677Z,11.94
2018-10-02T09:44:20.879Z,11.92
2018-10-02T09:46:33.316Z,11.92
2018-10-02T09:48:45.547Z,11.93
2018-10-02T09:50:57.796Z,11.88
2018-10-02T09:53:10.020Z,11.95
2018-10-02T09:55:22.202Z,12.03
2018-10-02T09:57:34.538Z,12.14
2018-10-02T09:59:46.824Z,12.14
2018-10-02T10:02:04.739Z,12.16
2018-10-02T10:04:17.560Z,12.19
2018-10-02T10:06:29.780Z,12.19
2018-10-02T10:08:41.989Z,12.23
2018-10-02T10:10:54.279Z,12.14
2018-10-02T10:13:06.499Z,12.09
2018-10-02T10:15:18.754Z,12.09
2018-10-02T10:17:31.041Z,12.21
2018-10-02T10:19:43.232Z,12.20
2018-10-02T10:21:55.459Z,12.28
2018-10-02T10:24:07.690Z,12.28
2018-10-02T10:26:19.966Z,12.38
2018-10-02T10:28:32.245Z,12.49
2018-10-02T10:30:44.503Z,12.69
2018-10-02T10:32:56.733Z,12.82
2018-10-02T10:35:08.972Z,12.93
2018-10-02T10:37:21.217Z,12.97
2018-10-02T10:39:33.424Z,12.92
2018-10-02T10:41:45.666Z,12.90
2018-10-02T10:43:57.872Z,12.77
2018-10-02T10:46:10.126Z,12.80
2018-10-02T10:48:22.503Z,12.76
2018-10-02T10:50:34.726Z,12.72
2018-10-02T10:52:46.939Z,12.80
2018-10-02T10:55:10.519Z,12.85
2018-10-02T10:57:22.830Z,12.87
2018-10-02T10:59:35.021Z,12.93
2018-10-02T11:01:47.293Z,12.92
2018-10-02T11:03:59.543Z,12.85
2018-10-02T11:06:11.778Z,12.85
2018-10-02T11:08:23.986Z,12.89
2018-10-02T11:10:36.225Z,12.88
2018-10-02T11:12:48.577Z,12.89
2018-10-02T11:15:00.863Z,12.81
2018-10-02T11:17:13.148Z,12.83
2018-10-02T11:19:25.462Z,12.81
2018-10-02T11:21:37.679Z,12.79
2018-10-02T11:23:49.931Z,12.84
2018-10-02T11:26:02.207Z,12.85
2018-10-02T11:28:14.503Z,12.74
2018-10-02T11:30:26.774Z,12.64
2018-10-02T11:32:39.011Z,12.70
2018-10-02T11:34:51.262Z,12.74
2018-10-02T11:37:03.548Z,12.80
2018-10-02T11:39:15.826Z,12.80
2018-10-02T11:41:28.008Z,12.78
2018-10-02T11:43:40.273Z,12.84
2018-10-02T11:45:52.522Z,12.89
2018-10-02T11:48:04.775Z,12.92
2018-10-02T11:50:16.988Z,12.86
2018-10-02T11:52:29.202Z,12.91
2018-10-02T11:54:41.463Z,12.92
2018-10-02T11:56:53.727Z,12.92
2018-10-02T11:59:05.942Z,12.95
2018-10-02T12:01:18.253Z,12.91
2018-10-02T12:03:30.491Z,13.04
2018-10-02T12:05:42.617Z,13.13
2018-10-02T12:07:54.856Z,13.18
2018-10-02T12:10:07.171Z,13.24
2018-10-02T12:12:19.395Z,13.33
2018-10-02T12:14:31.758Z,13.33
2018-10-02T12:16:43.889Z,13.32
2018-10-02T12:18:56.131Z,13.28
2018-10-02T12:21:08.359Z,13.21
2018-10-02T12:23:21.538Z,13.11
2018-10-02T12:25:33.774Z,13.22
2018-10-02T12:27:46.049Z,13.25
2018-10-02T12:29:58.251Z,13.26
2018-10-02T12:32:10.579Z,13.25
2018-10-02T12:34:22.815Z,13.26
2018-10-02T12:36:35.080Z,13.08
2018-10-02T12:38:47.322Z,13.02
2018-10-02T12:40:59.610Z,13.06
2018-10-02T12:43:11.823Z,13.00
2018-10-02T12:45:24.059Z,12.97
2018-10-02T12:47:36.303Z,12.94
2018-10-02T12:49:48.503Z,12.97
2018-10-02T12:52:00.731Z,12.97
2018-10-02T12:54:12.935Z,13.03
2018-10-02T12:56:25.211Z,13.07
2018-10-02T12:58:38.332Z,13.06
2018-10-02T13:00:50.535Z,13.09
2018-10-02T13:03:02.825Z,13.02
2018-10-02T13:05:15.079Z,12.95
2018-10-02T13:07:27.350Z,12.93
2018-10-02T13:09:39.601Z,12.95
2018-10-02T13:11:51.851Z,12.90
2018-10-02T13:14:04.092Z,12.92
2018-10-02T13:16:16.327Z,12.82
2018-10-02T13:18:28.676Z,12.79
2018-10-02T13:20:40.850Z,12.81
2018-10-02T13:22:53.075Z,12.86
2018-10-02T13:25:05.334Z,12.93
2018-10-02T13:27:17.584Z,12.91
2018-10-02T13:29:29.806Z,12.92
2018-10-02T13:31:42.040Z,12.90
2018-10-02T13:33:54.293Z,12.91
2018-10-02T13:36:06.975Z,12.90
2018-10-02T13:38:19.222Z,12.86
2018-10-02T13:40:31.477Z,12.84
2018-10-02T13:42:43.785Z,12.78
2018-10-02T13:44:56.076Z,12.74
2018-10-02T13:47:08.300Z,12.70
2018-10-02T13:49:20.527Z,12.73
2018-10-02T13:51:32.728Z,12.74
2018-10-02T13:53:44.972Z,12.77
2018-10-02T13:55:57.239Z,12.76
2018-10-02T13:58:09.991Z,12.76
2018-10-02T14:00:22.240Z,12.81
2018-10-02T14:02:34.767Z,12.79
2018-10-02T14:04:47.115Z,12.77
2018-10-02T14:06:59.381Z,12.76
2018-10-02T14:09:11.630Z,12.70
2018-10-02T14:11:23.872Z,12.70
2018-10-02T14:13:36.164Z,12.75
2018-10-02T14:15:48.356Z,12.78
2018-10-02T14:18:00.595Z,12.75
2018-10-02T14:20:12.896Z,12.81
2018-10-02T14:22:25.165Z,12.79
2018-10-02T14:24:37.415Z,12.83
2018-10-02T14:26:49.619Z,12.78
2018-10-02T14:29:01.903Z,12.82
2018-10-02T14:31:14.098Z,12.84
2018-10-02T14:33:26.546Z,12.83
2018-10-02T14:35:38.894Z,12.83
2018-10-02T14:37:51.105Z,12.87
2018-10-02T14:40:03.450Z,12.82
2018-10-02T14:42:15.720Z,12.73
2018-10-02T14:44:27.998Z,12.60
2018-10-02T14:46:40.206Z,12.49
2018-10-02T14:48:52.504Z,12.41
2018-10-02T14:51:04.816Z,12.31
2018-10-02T14:53:17.061Z,12.22
2018-10-02T14:55:29.285Z,12.20
2018-10-02T14:57:41.539Z,12.18
2018-10-02T14:59:53.784Z,12.12
2018-10-02T15:02:06.092Z,12.09
2018-10-02T15:04:18.407Z,12.03
2018-10-02T15:06:30.662Z,11.98
2018-10-02T15:08:42.925Z,12.01
2018-10-02T15:10:55.214Z,12.01
2018-10-02T15:13:07.480Z,11.98
2018-10-02T15:15:19.686Z,11.91
2018-10-02T15:17:31.940Z,11.89
2018-10-02T15:19:44.155Z,11.87
2018-10-02T15:21:56.430Z,11.89
2018-10-02T15:24:08.702Z,11.87
2018-10-02T15:26:21.196Z,11.83
2018-10-02T15:28:33.418Z,11.83
2018-10-02T15:30:45.653Z,11.84
2018-10-02T15:32:57.905Z,11.85
2018-10-02T15:35:10.185Z,11.84
2018-10-02T15:37:22.461Z,11.82
2018-10-02T15:39:34.678Z,11.80
2018-10-02T15:41:46.916Z,11.75
2018-10-02T15:43:59.149Z,11.81
2018-10-02T15:46:11.393Z,11.82
2018-10-02T15:48:23.639Z,11.82
2018-10-02T15:50:35.853Z,11.74
2018-10-02T15:52:48.100Z,11.70
2018-10-02T15:55:00.355Z,11.73
2018-10-02T15:57:12.598Z,11.69
2018-10-02T15:59:24.851Z,11.70
2018-10-02T16:01:37.136Z,11.71
2018-10-02T16:03:49.367Z,11.73
2018-10-02T16:06:01.689Z,11.75
2018-10-02T16:08:13.963Z,11.77
2018-10-02T16:10:26.191Z,11.79
2018-10-02T16:12:38.416Z,11.81
2018-10-02T16:14:50.696Z,11.82
2018-10-02T16:17:02.951Z,11.80
2018-10-02T16:19:15.187Z,11.82
2018-10-02T16:21:27.483Z,11.83
2018-10-02T16:23:40.559Z,11.83
2018-10-02T16:25:52.783Z,11.81
2018-10-02T16:28:05.072Z,11.85
2018-10-02T16:30:17.311Z,11.84
2018-10-02T16:32:29.567Z,11.86
2018-10-02T16:34:49.287Z,11.92
2018-10-02T16:36:54.128Z,11.89
2018-10-02T16:39:07.802Z,11.96
2018-10-02T16:41:20.009Z,12.19
2018-10-02T16:43:32.291Z,12.31
2018-10-02T16:45:44.535Z,12.27
2018-10-02T16:47:56.855Z,12.11
2018-10-02T16:50:09.139Z,12.04
2018-10-02T16:52:21.387Z,12.05
2018-10-02T16:54:33.728Z,12.01
2018-10-02T16:56:45.878Z,12.03
2018-10-02T16:58:58.105Z,12.03
2018-10-02T17:01:10.304Z,12.04
2018-10-02T17:03:22.556Z,12.05
2018-10-02T17:05:34.784Z,12.03
2018-10-02T17:07:46.998Z,12.02
2018-10-02T17:09:59.242Z,11.96
2018-10-02T17:12:11.516Z,11.95
2018-10-02T17:14:23.865Z,11.97
2018-10-02T17:16:36.395Z,11.99
2018-10-02T17:18:48.610Z,11.97
2018-10-02T17:21:00.839Z,11.97
2018-10-02T17:23:13.050Z,12.00
2018-10-02T17:25:25.340Z,11.94
2018-10-02T17:27:37.579Z,11.94
2018-10-02T17:29:49.844Z,11.95
2018-10-02T17:32:02.071Z,11.96
2018-10-02T17:34:14.353Z,11.97
2018-10-02T17:36:26.615Z,11.99
2018-10-02T17:38:38.946Z,12.01
2018-10-02T17:40:51.211Z,12.04
2018-10-02T17:43:03.497Z,11.98
2018-10-02T17:45:15.808Z,11.98
2018-10-02T17:47:28.310Z,11.99
2018-10-02T17:49:40.506Z,12.01
2018-10-02T17:51:52.877Z,12.01
2018-10-02T17:54:05.164Z,12.02
2018-10-02T17:56:17.385Z,12.00
2018-10-02T17:58:29.663Z,11.98
2018-10-02T18:00:41.941Z,11.97
2018-10-02T18:02:54.268Z,11.98
2018-10-02T18:05:06.527Z,12.01
2018-10-02T18:07:18.787Z,12.00
2018-10-02T18:09:31.120Z,12.01
2018-10-02T18:11:43.331Z,12.03
2018-10-02T18:13:55.723Z,12.01
2018-10-02T18:16:08.020Z,11.98
2018-10-02T18:18:20.330Z,11.99
2018-10-02T18:20:32.691Z,12.03
2018-10-02T18:22:44.959Z,12.02
2018-10-02T18:24:57.163Z,11.98
2018-10-02T18:27:09.381Z,11.98
2018-10-02T18:29:21.592Z,11.98
2018-10-02T18:31:33.839Z,11.96
2018-10-02T18:33:46.082Z,11.95
2018-10-02T18:35:58.532Z,11.93
2018-10-02T18:38:10.795Z,11.95
2018-10-02T18:40:23.049Z,11.93
2018-10-02T18:42:35.309Z,11.91
2018-10-02T18:44:47.720Z,11.88
2018-10-02T18:46:59.999Z,11.92
2018-10-02T18:49:12.287Z,11.99
2018-10-02T18:51:24.505Z,12.00
2018-10-02T18:53:36.848Z,11.94
2018-10-02T18:55:49.174Z,11.97
2018-10-02T18:58:01.439Z,11.97
2018-10-02T19:00:13.739Z,11.99
2018-10-02T19:02:25.996Z,11.98
2018-10-02T19:04:38.260Z,11.97
2018-10-02T19:06:50.582Z,11.98
2018-10-02T19:09:08.670Z,11.98
2018-10-02T19:11:26.546Z,12.01
2018-10-02T19:13:39.040Z,12.01
2018-10-02T19:16:30.586Z,12.00
2018-10-02T19:18:42.996Z,11.98
2018-10-02T19:20:55.314Z,11.95
2018-10-02T19:23:07.730Z,11.96
2018-10-02T19:25:25.658Z,11.97
2018-10-02T19:27:38.023Z,11.93
2018-10-02T19:29:56.094Z,11.96
2018-10-02T19:32:11.454Z,11.98
2018-10-02T19:34:23.893Z,11.98
2018-10-02T19:36:36.464Z,11.95
2018-10-02T19:38:51.364Z,11.95
2018-10-02T19:41:03.744Z,11.94
2018-10-02T19:43:16.218Z,11.94
2018-10-02T19:45:34.042Z,11.90
2018-10-02T19:47:46.348Z,11.90
2018-10-02T19:49:58.846Z,11.89
2018-10-02T19:52:12.508Z,11.89
2018-10-02T19:54:25.320Z,11.90
2018-10-02T19:56:37.596Z,11.90
2018-10-02T19:58:50.273Z,11.90
2018-10-02T20:01:02.595Z,11.89
2018-10-02T20:03:14.842Z,11.86
2018-10-02T20:05:27.143Z,11.85
2018-10-02T20:07:39.403Z,11.87
2018-10-02T20:09:51.668Z,11.88
2018-10-02T20:12:03.932Z,11.89
2018-10-02T20:14:16.224Z,11.93
2018-10-02T20:16:28.490Z,11.93
2018-10-02T20:18:40.746Z,11.95
2018-10-02T20:20:52.994Z,11.95
2018-10-02T20:23:05.267Z,11.96
2018-10-02T20:25:17.529Z,11.97
2018-10-02T20:27:29.783Z,11.94
2018-10-02T20:29:42.089Z,11.92
2018-10-02T20:31:54.346Z,11.94
2018-10-02T20:34:06.615Z,11.93
2018-10-02T20:36:18.880Z,11.94
2018-10-02T20:38:31.130Z,11.97
2018-10-02T20:40:43.386Z,11.98
2018-10-02T20:42:55.724Z,11.95
2018-10-02T20:45:07.944Z,11.93
2018-10-02T20:47:20.270Z,11.87
2018-10-02T20:49:32.534Z,11.88
2018-10-02T20:51:44.756Z,11.87
2018-10-02T20:53:57.049Z,11.87
2018-10-02T20:56:09.298Z,11.87
2018-10-02T20:58:21.856Z,11.88
2018-10-02T21:00:34.218Z,11.85
2018-10-02T21:02:46.487Z,11.84
2018-10-02T21:04:58.730Z,11.82
2018-10-02T21:07:11.037Z,11.84
2018-10-02T21:09:23.272Z,11.81
2018-10-02T21:11:35.490Z,11.83
2018-10-02T21:13:47.757Z,11.84
2018-10-02T21:16:00.068Z,11.82
2018-10-02T21:18:12.383Z,11.75
2018-10-02T21:20:24.616Z,11.75
2018-10-02T21:22:36.791Z,11.74
2018-10-02T21:24:49.155Z,11.73
2018-10-02T21:27:01.386Z,11.75
2018-10-02T21:29:13.662Z,11.74
2018-10-02T21:31:25.917Z,11.75
2018-10-02T21:33:38.106Z,11.70
2018-10-02T21:35:50.364Z,11.70
2018-10-02T21:38:02.819Z,11.71
2018-10-02T21:40:15.193Z,11.72
2018-10-02T21:42:27.359Z,11.72
2018-10-02T21:44:39.723Z,11.72
2018-10-02T21:46:52.022Z,11.73
2018-10-02T21:49:04.225Z,11.68
2018-10-02T21:51:16.477Z,11.71
2018-10-02T21:53:28.674Z,11.71
2018-10-02T21:55:40.897Z,11.70
2018-10-02T21:57:53.166Z,11.68
2018-10-02T22:00:06.807Z,11.68
2018-10-02T22:02:19.032Z,11.68
2018-10-02T22:04:31.236Z,11.68
2018-10-02T22:06:43.499Z,11.69
2018-10-02T22:08:55.763Z,11.70
2018-10-02T22:11:07.995Z,11.72
2018-10-02T22:13:20.246Z,11.68
2018-10-02T22:15:32.461Z,11.64
2018-10-02T22:17:44.811Z,11.69
2018-10-02T22:19:57.051Z,11.68
2018-10-02T22:22:09.320Z,11.71
2018-10-02T22:24:21.638Z,11.71
2018-10-02T22:26:33.856Z,11.67
2018-10-02T22:28:46.318Z,11.65
2018-10-02T22:30:58.525Z,11.65
2018-10-02T22:33:10.838Z,11.66
2018-10-02T22:35:22.998Z,11.66
2018-10-02T22:37:35.291Z,11.64
2018-10-02T22:39:47.545Z,11.63
2018-10-02T22:41:59.792Z,11.58
2018-10-02T22:44:12.108Z,11.56
2018-10-02T22:46:24.396Z,11.58
2018-10-02T22:48:36.878Z,11.58
2018-10-02T22:50:49.138Z,11.53
2018-10-02T22:53:01.414Z,11.48
2018-10-02T22:55:18.356Z,11.50
2018-10-02T22:57:30.600Z,11.42
2018-10-02T22:59:42.824Z,11.39
2018-10-02T23:01:55.057Z,11.40
2018-10-02T23:04:07.268Z,11.36
2018-10-02T23:06:19.480Z,11.37
2018-10-02T23:08:31.668Z,11.36
2018-10-02T23:10:43.937Z,11.30
2018-10-02T23:12:56.108Z,11.26
2018-10-02T23:15:08.310Z,11.25
2018-10-02T23:17:20.495Z,11.25
2018-10-02T23:19:32.714Z,11.29
2018-10-02T23:21:44.888Z,11.30
2018-10-02T23:23:57.098Z,11.31
2018-10-02T23:26:09.346Z,11.34
2018-10-02T23:28:21.510Z,11.38
2018-10-02T23:30:33.755Z,11.39
2018-10-02T23:32:46.089Z,11.39
2018-10-02T23:34:58.260Z,11.38
2018-10-02T23:37:10.467Z,11.39
2018-10-02T23:39:22.659Z,11.39
2018-10-02T23:41:34.895Z,11.43
2018-10-02T23:43:47.163Z,11.43
2018-10-02T23:45:59.407Z,11.43
2018-10-02T23:48:11.607Z,11.48
2018-10-02T23:50:23.819Z,11.46
2018-10-02T23:52:36.019Z,11.50
2018-10-02T23:54:48.218Z,11.53
2018-10-02T23:57:00.481Z,11.55
2018-10-02T23:59:12.694Z,11.59
